Time;durP1;ratioP1;P1;durP2;ratioP2;P2;SDS_P1;SDS_P2;PMS_P1;PMS_P2;Temp;Humidity;BMP_temperature;BMP_pressure;BME280_temperature;BME280_humidity;BME280_pressure;Samples;Min_cycle;Max_cycle;Signal;HPM_P1;HPM_P2
2021/12/11 00:00:08;;;;;;;;;4.50;4.00;;;;;5.73;100.00;100713.81;4876934;29;44676;-88
2021/12/11 00:02:34;;;;;;;;;4.75;2.00;;;;;5.70;100.00;100709.53;4883673;29;44849;-88
2021/12/11 00:05:01;;;;;;;;;7.75;4.25;;;;;5.71;100.00;100707.78;4868186;29;46594;-87
2021/12/11 00:07:29;;;;;;;;;2.00;2.00;;;;;5.73;100.00;100708.56;4884947;29;44725;-89
2021/12/11 00:10:04;;;;;;;;;10.00;4.75;;;;;5.74;100.00;100723.44;4885310;29;44657;-89
2021/12/11 00:12:35;;;;;;;;;2.50;2.50;;;;;5.68;100.00;100714.03;4884225;29;44810;-89
2021/12/11 00:15:33;;;;;;;;;5.50;4.00;;;;;5.67;100.00;100734.28;4879659;29;45069;-88
2021/12/11 00:18:10;;;;;;;;;0.60;0.00;;;;;5.68;100.00;100735.97;4863365;29;44780;-90
2021/12/11 00:20:40;;;;;;;;;5.00;5.00;;;;;5.61;100.00;100733.72;4850177;29;44731;-89
2021/12/11 00:23:06;;;;;;;;;4.00;4.00;;;;;5.59;100.00;100735.56;4858599;29;44896;-88
2021/12/11 00:25:32;;;;;;;;;6.00;3.25;;;;;5.63;100.00;100745.03;4856937;29;45207;-89
2021/12/11 00:28:06;;;;;;;;;4.75;3.00;;;;;5.57;100.00;100750.59;4870433;29;44756;-90
2021/12/11 00:30:36;;;;;;;;;3.75;1.00;;;;;5.49;100.00;100752.72;4870834;29;44746;-89
2021/12/11 00:33:10;;;;;;;;;5.00;3.50;;;;;5.51;100.00;100762.28;4870515;29;44820;-89
2021/12/11 00:35:37;;;;;;;;;6.50;4.00;;;;;5.56;100.00;100765.56;4869971;29;45400;-90
2021/12/11 00:38:07;;;;;;;;;4.50;4.00;;;;;5.57;100.00;100759.34;4868308;29;45192;-91
2021/12/11 00:40:34;;;;;;;;;4.75;3.00;;;;;5.56;100.00;100755.00;4870161;29;44803;-89
2021/12/11 00:43:04;;;;;;;;;3.50;3.50;;;;;5.60;100.00;100779.41;4871460;29;44825;-89
2021/12/11 00:45:34;;;;;;;;;1.25;1.00;;;;;5.56;100.00;100769.94;4874235;29;45422;-89
2021/12/11 00:48:08;;;;;;;;;0.75;0.75;;;;;5.57;100.00;100787.47;4873199;29;44776;-89
2021/12/11 00:50:39;;;;;;;;;6.25;4.00;;;;;5.49;100.00;100787.81;4854709;29;44841;-90
2021/12/11 00:53:12;;;;;;;;;8.25;8.00;;;;;5.44;100.00;100800.34;4869100;29;45309;-88
2021/12/11 00:55:43;;;;;;;;;4.75;4.75;;;;;5.26;100.00;100801.16;4869291;29;46239;-88
2021/12/11 00:58:11;;;;;;;;;3.25;1.75;;;;;5.22;100.00;100799.56;4854087;29;44705;-90
2021/12/11 01:00:46;;;;;;;;;10.25;4.50;;;;;5.20;100.00;100804.06;4870980;29;44689;-90
2021/12/11 01:03:16;;;;;;;;;8.00;4.00;;;;;5.16;100.00;100811.22;4854186;29;44896;-90
2021/12/11 01:05:45;;;;;;;;;7.00;5.25;;;;;5.13;100.00;100804.34;4873960;29;46878;-90
2021/12/11 01:08:14;;;;;;;;;4.00;4.00;;;;;5.09;100.00;100818.56;4873217;29;44680;-89
2021/12/11 01:10:40;;;;;;;;;3.25;2.00;;;;;5.04;100.00;100831.06;4855133;29;44758;-91
2021/12/11 01:13:06;;;;;;;;;6.25;4.25;;;;;4.96;100.00;100834.94;4853037;29;44920;-90
2021/12/11 01:15:45;;;;;;;;;4.25;4.00;;;;;4.93;100.00;100845.56;4868654;29;45207;-90
2021/12/11 01:21:08;;;;;;;;;6.50;4.00;;;;;4.88;100.00;100851.03;4870248;29;44752;-89
2021/12/11 01:26:11;;;;;;;;;4.00;2.00;;;;;4.78;100.00;100849.69;4870588;29;45201;-90
2021/12/11 01:28:37;;;;;;;;;6.75;6.50;;;;;4.81;100.00;100860.97;4873767;29;44683;-92
2021/12/11 01:31:08;;;;;;;;;3.25;3.00;;;;;4.84;100.00;100881.91;4874410;29;44758;-90
2021/12/11 01:33:34;;;;;;;;;2.50;2.50;;;;;4.81;100.00;100873.28;4858341;29;45239;-89
2021/12/11 01:35:59;;;;;;;;;3.75;3.00;;;;;4.82;100.00;100865.31;4857897;29;45367;-90
2021/12/11 01:38:28;;;;;;;;;4.75;3.00;;;;;4.79;100.00;100870.72;4869747;29;44744;-88
2021/12/11 01:40:59;;;;;;;;;6.25;2.75;;;;;4.85;100.00;100894.13;4869746;29;44771;-89
2021/12/11 01:43:29;;;;;;;;;6.75;4.75;;;;;4.82;100.00;100888.13;4871783;29;44765;-89
2021/12/11 01:45:56;;;;;;;;;6.00;2.75;;;;;4.78;100.00;100895.28;4852277;29;45208;-89
2021/12/11 01:48:34;;;;;;;;;3.50;3.00;;;;;4.81;100.00;100910.97;4869452;29;44844;-88
2021/12/11 01:51:05;;;;;;;;;4.25;3.00;;;;;4.82;100.00;100902.16;4872920;29;44987;-89
2021/12/11 01:53:37;;;;;;;;;6.75;2.75;;;;;4.80;100.00;100909.25;4876271;29;44814;-90
2021/12/11 01:56:08;;;;;;;;;8.00;3.00;;;;;4.83;100.00;100900.38;4859194;29;45520;-89
2021/12/11 01:58:43;;;;;;;;;6.25;4.25;;;;;4.84;100.00;100910.84;4856782;29;44671;-89
2021/12/11 02:01:21;;;;;;;;;5.25;3.50;;;;;4.88;100.00;100912.44;4859405;29;44682;-89
2021/12/11 02:03:52;;;;;;;;;7.25;6.25;;;;;4.84;100.00;100921.38;4875195;29;44770;-89
2021/12/11 02:06:18;;;;;;;;;5.00;3.25;;;;;4.84;100.00;100920.53;4874666;29;45333;-89
2021/12/11 02:08:43;;;;;;;;;5.00;3.50;;;;;4.79;100.00;100918.09;4872991;29;44655;-89
2021/12/11 02:11:20;;;;;;;;;4.00;3.00;;;;;4.83;100.00;100926.69;4874462;29;45296;-90
2021/12/11 02:17:27;;;;;;;;;1.75;1.75;;;;;4.78;100.00;100933.91;4872700;29;44891;-91
2021/12/11 02:19:56;;;;;;;;;6.00;3.25;;;;;4.80;100.00;100937.34;4872414;29;44784;-90
2021/12/11 02:22:26;;;;;;;;;6.50;4.00;;;;;4.78;100.00;100950.56;4872197;29;44815;-90
2021/12/11 02:24:57;;;;;;;;;3.75;3.00;;;;;4.83;100.00;100948.59;4874817;29;44836;-89
2021/12/11 02:27:29;;;;;;;;;6.00;3.00;;;;;4.87;100.00;100959.88;4876393;29;45176;-90
2021/12/11 02:30:04;;;;;;;;;5.50;3.00;;;;;4.88;100.00;100964.22;4877327;29;44713;-91
2021/12/11 02:32:44;;;;;;;;;6.00;3.50;;;;;4.84;100.00;100963.50;4878873;29;44775;-89
2021/12/11 02:35:22;;;;;;;;;4.00;3.75;;;;;4.82;100.00;100964.47;4856417;29;44851;-90
2021/12/11 02:37:55;;;;;;;;;4.50;2.00;;;;;4.83;100.00;100960.91;4878912;29;44995;-88
2021/12/11 02:40:28;;;;;;;;;5.00;3.00;;;;;4.80;100.00;100969.78;4882236;29;44656;-90
2021/12/11 02:42:57;;;;;;;;;3.50;3.50;;;;;4.85;100.00;100969.63;4881476;29;44768;-88
2021/12/11 02:45:35;;;;;;;;;4.75;2.25;;;;;4.79;100.00;100970.72;4880757;29;44868;-89
2021/12/11 02:48:08;;;;;;;;;2.75;2.00;;;;;4.83;100.00;100968.81;4881382;29;45228;-85
2021/12/11 02:50:40;;;;;;;;;7.00;3.00;;;;;4.87;100.00;100984.41;4879239;29;44765;-85
2021/12/11 02:53:06;;;;;;;;;4.00;4.00;;;;;4.88;100.00;100980.91;4895779;29;44733;-85
2021/12/11 02:55:43;;;;;;;;;3.00;2.50;;;;;4.87;100.00;100989.69;4895653;29;44839;-86
2021/12/11 02:58:20;;;;;;;;;3.50;3.50;;;;;4.84;100.00;100979.28;4889442;29;45487;-86
2021/12/11 03:00:51;;;;;;;;;8.75;3.00;;;;;4.81;100.00;100983.81;4868534;29;45392;-84
2021/12/11 03:03:25;;;;;;;;;7.75;2.00;;;;;4.77;100.00;100990.97;4885092;29;44710;-84
2021/12/11 03:06:01;;;;;;;;;4.00;3.00;;;;;4.81;100.00;100996.97;4885437;29;45316;-85
2021/12/11 03:08:26;;;;;;;;;8.50;3.25;;;;;4.82;100.00;100998.69;4884660;29;45256;-85
2021/12/11 03:10:58;;;;;;;;;3.75;1.00;;;;;4.84;100.00;101005.63;4883946;29;44743;-85
2021/12/11 03:13:27;;;;;;;;;7.50;3.50;;;;;4.84;100.00;101010.88;4883604;29;45410;-85
2021/12/11 03:15:53;;;;;;;;;4.00;4.00;;;;;4.86;100.00;101008.19;4883521;29;45246;-84
2021/12/11 03:18:20;;;;;;;;;3.75;3.75;;;;;4.90;100.00;101017.66;4883240;29;45510;-84
2021/12/11 03:20:47;;;;;;;;;3.00;3.00;;;;;4.87;100.00;101008.09;4885257;29;45323;-84
2021/12/11 03:23:13;;;;;;;;;4.00;4.00;;;;;4.91;100.00;101022.00;4888525;29;44853;-85
2021/12/11 03:25:40;;;;;;;;;3.25;2.50;;;;;4.93;100.00;101032.47;4888605;29;45337;-84
2021/12/11 03:28:09;;;;;;;;;3.00;3.00;;;;;4.95;100.00;101041.19;4871273;29;45547;-84
2021/12/11 03:30:39;;;;;;;;;2.25;2.25;;;;;4.95;100.00;101042.03;4888293;29;45154;-84
2021/12/11 03:33:13;;;;;;;;;3.75;3.75;;;;;4.98;100.00;101056.84;4883080;29;45438;-84
2021/12/11 03:35:40;;;;;;;;;4.75;2.00;;;;;4.97;100.00;101056.00;4866465;29;44900;-84
2021/12/11 03:38:08;;;;;;;;;1.75;1.25;;;;;5.05;100.00;101071.50;4882604;29;45339;-85
2021/12/11 03:40:34;;;;;;;;;2.25;2.00;;;;;5.03;100.00;101062.78;4882911;29;44739;-84
2021/12/11 03:43:07;;;;;;;;;0.75;0.00;;;;;5.06;100.00;101055.63;4883138;29;44796;-84
2021/12/11 03:45:37;;;;;;;;;4.25;3.00;;;;;5.17;100.00;101060.47;4883835;29;44813;-83
2021/12/11 03:48:17;;;;;;;;;4.00;3.00;;;;;5.20;100.00;101070.03;4885064;29;45125;-85
2021/12/11 03:50:43;;;;;;;;;6.00;3.25;;;;;5.16;100.00;101070.16;4871490;29;44741;-84
2021/12/11 03:53:09;;;;;;;;;4.00;4.00;;;;;5.19;100.00;101090.25;4886069;29;44738;-84
2021/12/11 03:55:42;;;;;;;;;4.25;2.00;;;;;5.19;100.00;101087.63;4886168;29;45267;-84
2021/12/11 03:58:08;;;;;;;;;1.25;1.25;;;;;5.15;100.00;101086.88;4882969;29;45364;-84
2021/12/11 04:00:40;;;;;;;;;2.50;2.00;;;;;5.15;100.00;101088.66;4882227;29;44951;-84
2021/12/11 04:03:09;;;;;;;;;3.50;2.75;;;;;5.20;100.00;101086.69;4882338;29;45369;-84
2021/12/11 04:05:39;;;;;;;;;2.00;2.00;;;;;5.13;100.00;101088.72;4882545;29;45008;-84
2021/12/11 04:08:07;;;;;;;;;4.00;1.50;;;;;5.21;100.00;101075.25;4882650;29;45239;-84
2021/12/11 04:10:33;;;;;;;;;2.25;2.00;;;;;5.19;100.00;101079.72;4883957;29;45263;-86
2021/12/11 04:13:03;;;;;;;;;1.00;1.00;;;;;5.22;100.00;101090.16;4888126;29;45260;-89
2021/12/11 04:15:28;;;;;;;;;4.50;3.00;;;;;5.22;100.00;101098.06;4888464;29;44930;-87
2021/12/11 04:17:54;;;;;;;;;3.75;3.75;;;;;5.22;100.00;101084.00;4889294;29;44951;-87
2021/12/11 04:20:22;;;;;;;;;2.75;2.00;;;;;5.23;100.00;101099.75;4884927;29;44901;-87
2021/12/11 04:22:48;;;;;;;;;4.75;3.00;;;;;5.19;100.00;101094.69;4885297;29;44821;-87
2021/12/11 04:25:16;;;;;;;;;3.50;3.00;;;;;5.24;100.00;101104.09;4885298;29;44917;-87
2021/12/11 04:27:42;;;;;;;;;4.00;2.00;;;;;5.24;100.00;101097.97;4886045;29;45473;-87
2021/12/11 04:30:12;;;;;;;;;2.25;2.25;;;;;5.25;100.00;101110.22;4889380;29;45062;-87
2021/12/11 04:32:38;;;;;;;;;4.25;2.00;;;;;5.25;100.00;101116.34;4892378;29;44741;-86
2021/12/11 04:35:08;;;;;;;;;2.25;2.25;;;;;5.20;100.00;101105.13;4892095;29;45550;-87
2021/12/11 04:37:36;;;;;;;;;2.00;2.00;;;;;5.15;100.00;101115.00;4883722;29;45307;-87
2021/12/11 04:40:18;;;;;;;;;5.50;3.50;;;;;5.16;100.00;101114.06;4884628;29;44822;-87
2021/12/11 04:42:58;;;;;;;;;3.50;3.50;;;;;5.15;100.00;101128.16;4889179;29;44758;-85
2021/12/11 04:46:03;;;;;;;;;2.75;1.00;;;;;5.06;100.00;101126.72;4893408;29;44683;-84
2021/12/11 04:51:35;;;;;;;;;4.00;4.00;;;;;5.10;100.00;101151.19;4884863;29;45491;-85
2021/12/11 04:54:25;;;;;;;;;2.75;2.25;;;;;5.06;100.00;101144.31;4884394;29;45151;-85
2021/12/11 05:10:49;;;;;;;;;6.00;4.00;;;;;4.99;100.00;101148.94;4883807;29;45109;-84
2021/12/11 05:12:59;;;;;;;;;3.75;2.00;;;;;4.97;100.00;101142.00;4882307;29;44772;-84
2021/12/11 05:15:33;;;;;;;;;2.00;2.00;;;;;4.94;100.00;101139.50;4886532;29;44801;-85
2021/12/11 05:17:59;;;;;;;;;2.50;1.50;;;;;4.92;100.00;101147.44;4884088;29;44795;-84
2021/12/11 05:20:32;;;;;;;;;3.75;2.25;;;;;4.91;100.00;101145.75;4881795;29;45090;-84
2021/12/11 05:22:58;;;;;;;;;3.00;1.00;;;;;4.90;100.00;101144.03;4882017;29;44774;-84
2021/12/11 05:25:24;;;;;;;;;5.00;3.00;;;;;4.84;100.00;101160.06;4882675;29;44785;-85
2021/12/11 05:27:49;;;;;;;;;2.75;2.75;;;;;4.79;100.00;101159.38;4883156;29;45549;-84
2021/12/11 05:30:20;;;;;;;;;4.00;3.00;;;;;4.79;100.00;101170.75;4882054;29;45212;-84
2021/12/11 05:32:48;;;;;;;;;6.25;3.00;;;;;4.73;100.00;101170.94;4865685;29;45503;-85
2021/12/11 05:35:14;;;;;;;;;3.50;2.00;;;;;4.74;100.00;101177.94;4884550;29;44942;-84
2021/12/11 05:37:41;;;;;;;;;4.25;3.25;;;;;4.75;100.00;101192.81;4885654;29;44839;-84
2021/12/11 05:40:12;;;;;;;;;10.00;4.25;;;;;4.68;100.00;101185.19;4883540;29;45469;-87
2021/12/11 05:42:38;;;;;;;;;4.00;3.00;;;;;4.71;100.00;101193.84;4885000;29;44712;-86
2021/12/11 05:45:05;;;;;;;;;3.25;0.75;;;;;4.72;100.00;101199.97;4888218;29;44797;-87
2021/12/11 05:47:30;;;;;;;;;3.00;3.00;;;;;4.71;100.00;101199.09;4871912;29;44935;-87
2021/12/11 05:49:57;;;;;;;;;2.00;2.00;;;;;4.75;100.00;101210.38;4874978;29;46382;-87
2021/12/11 05:52:24;;;;;;;;;7.00;4.25;;;;;4.76;100.00;101217.38;4871325;29;44675;-88
2021/12/11 05:54:51;;;;;;;;;3.00;3.00;;;;;4.69;100.00;101224.63;4866551;29;44867;-87
2021/12/11 05:57:19;;;;;;;;;4.75;3.00;;;;;4.68;100.00;101230.78;4865836;29;44898;-84
2021/12/11 05:59:48;;;;;;;;;8.50;5.50;;;;;4.62;100.00;101239.75;4868434;29;45264;-85
2021/12/11 06:02:20;;;;;;;;;8.50;2.75;;;;;4.56;100.00;101239.97;4870205;29;44750;-84
2021/12/11 06:04:50;;;;;;;;;7.00;4.50;;;;;4.50;100.00;101248.06;4871456;29;45210;-85
2021/12/11 06:07:18;;;;;;;;;4.50;3.75;;;;;4.42;100.00;101259.75;4867624;29;44827;-84
2021/12/11 06:09:51;;;;;;;;;7.00;5.00;;;;;4.35;100.00;101252.06;4865650;29;45297;-84
2021/12/11 06:12:18;;;;;;;;;4.25;1.00;;;;;4.31;100.00;101260.13;4866352;29;45348;-85
2021/12/11 06:14:46;;;;;;;;;3.75;3.00;;;;;4.29;100.00;101267.16;4866421;29;44826;-84
2021/12/11 06:17:15;;;;;;;;;9.50;7.00;;;;;4.19;100.00;101269.25;4867790;29;45285;-85
2021/12/11 06:19:49;;;;;;;;;2.00;2.00;;;;;4.13;100.00;101262.41;4866343;29;45400;-86
2021/12/11 06:22:14;;;;;;;;;7.50;3.75;;;;;4.09;100.00;101267.81;4866181;29;45366;-84
2021/12/11 06:24:40;;;;;;;;;9.00;6.25;;;;;4.03;100.00;101275.91;4865470;29;45426;-84
2021/12/11 06:27:05;;;;;;;;;6.00;4.00;;;;;3.93;100.00;101275.31;4866404;29;44793;-84
2021/12/11 06:29:31;;;;;;;;;10.50;5.75;;;;;3.82;100.00;101270.41;4866658;29;45299;-84
2021/12/11 06:31:57;;;;;;;;;9.75;5.25;;;;;3.83;100.00;101284.41;4867388;29;45483;-84
2021/12/11 06:34:22;;;;;;;;;6.00;4.00;;;;;3.80;100.00;101281.84;4868834;29;45345;-85
2021/12/11 06:36:48;;;;;;;;;2.50;2.50;;;;;3.82;100.00;101286.16;4870304;29;44720;-84
2021/12/11 06:39:19;;;;;;;;;6.00;4.50;;;;;3.82;100.00;101291.44;4869363;29;45317;-84
2021/12/11 06:41:49;;;;;;;;;8.75;7.00;;;;;3.79;100.00;101291.50;4869669;29;44801;-84
2021/12/11 06:44:15;;;;;;;;;8.00;6.00;;;;;3.75;100.00;101292.50;4870692;29;44809;-87
2021/12/11 06:46:41;;;;;;;;;6.33;4.00;;;;;3.76;100.00;101302.09;4871901;29;44866;-86
2021/12/11 06:49:08;;;;;;;;;4.00;3.75;;;;;3.78;100.00;101313.44;4866113;29;45473;-86
2021/12/11 06:51:34;;;;;;;;;11.00;7.00;;;;;3.74;100.00;101311.81;4870143;29;44830;-86
2021/12/11 06:54:05;;;;;;;;;7.67;6.33;;;;;3.75;100.00;101315.28;4879278;29;44811;-85
2021/12/11 06:56:32;;;;;;;;;9.00;7.00;;;;;3.76;100.00;101322.25;4860279;29;44954;-85
2021/12/11 06:59:00;;;;;;;;;9.00;8.00;;;;;3.75;100.00;101345.06;4868940;29;45090;-85
2021/12/11 07:01:27;;;;;;;;;7.67;6.00;;;;;3.70;100.00;101344.31;4865973;29;45402;-85
2021/12/11 07:03:53;;;;;;;;;12.00;7.33;;;;;3.74;100.00;101351.22;4866780;29;44762;-85
2021/12/11 07:06:19;;;;;;;;;14.33;8.00;;;;;3.71;100.00;101342.56;4866821;29;44969;-87
2021/12/11 07:08:47;;;;;;;;;7.33;7.33;;;;;3.71;100.00;101350.44;4868466;29;45286;-86
2021/12/11 07:11:12;;;;;;;;;13.33;8.00;;;;;3.67;100.00;101341.78;4866529;29;44772;-88
2021/12/11 07:13:40;;;;;;;;;5.33;5.33;;;;;3.72;100.00;101354.78;4868846;29;44803;-87
2021/12/11 07:16:07;;;;;;;;;6.00;1.00;;;;;3.77;100.00;101360.75;4866626;29;44863;-86
2021/12/11 07:18:34;;;;;;;;;8.33;6.00;;;;;3.79;100.00;101380.84;4869017;29;45083;-85
2021/12/11 07:21:00;;;;;;;;;10.00;7.00;;;;;3.77;100.00;101382.69;4867758;29;45353;-84
2021/12/11 07:23:27;;;;;;;;;7.67;6.33;;;;;3.75;100.00;101394.13;4868498;29;45244;-85
2021/12/11 07:25:57;;;;;;;;;6.33;6.33;;;;;3.77;100.00;101395.81;4868363;29;44795;-84
2021/12/11 07:28:23;;;;;;;;;15.33;7.33;;;;;3.74;100.00;101402.91;4869738;29;45473;-83
2021/12/11 07:30:51;;;;;;;;;9.67;7.67;;;;;3.76;100.00;101401.94;4849957;29;44792;-84
2021/12/11 07:33:18;;;;;;;;;4.00;3.33;;;;;3.78;100.00;101394.91;4867050;29;44660;-84
2021/12/11 07:35:45;;;;;;;;;7.00;7.00;;;;;3.80;100.00;101402.72;4869615;29;44775;-84
2021/12/11 07:38:11;;;;;;;;;6.33;3.00;;;;;3.80;100.00;101403.59;4848117;29;45298;-84
2021/12/11 07:40:42;;;;;;;;;6.00;6.00;;;;;3.85;100.00;101404.31;4866503;29;44839;-85
2021/12/11 07:43:10;;;;;;;;;9.67;5.67;;;;;3.82;100.00;101391.28;4867703;29;45311;-84
2021/12/11 07:45:36;;;;;;;;;7.00;6.33;;;;;3.85;100.00;101409.56;4868705;29;44816;-85
2021/12/11 07:48:03;;;;;;;;;7.75;7.00;;;;;3.85;100.00;101419.22;4864961;29;45682;-85
2021/12/11 07:50:29;;;;;;;;;9.00;7.67;;;;;3.84;100.00;101423.63;4863948;29;44882;-85
2021/12/11 07:52:55;;;;;;;;;14.00;10.00;;;;;3.88;100.00;101429.66;4863737;29;45271;-85
2021/12/11 07:55:21;;;;;;;;;7.67;7.67;;;;;3.90;100.00;101433.09;4864270;29;45518;-82
2021/12/11 07:57:47;;;;;;;;;9.25;7.00;;;;;3.91;100.00;101441.84;4864025;29;45098;-83
2021/12/11 08:00:16;;;;;;;;;11.25;8.50;;;;;3.93;100.00;101442.69;4864698;29;44739;-85
2021/12/11 08:02:43;;;;;;;;;9.50;5.25;;;;;3.98;100.00;101446.91;4866327;29;45460;-84
2021/12/11 08:05:09;;;;;;;;;7.75;7.50;;;;;4.00;100.00;101445.06;4870763;29;45579;-84
2021/12/11 08:07:35;;;;;;;;;10.50;8.00;;;;;4.05;100.00;101444.94;4870999;29;45260;-83
2021/12/11 08:10:01;;;;;;;;;9.00;7.25;;;;;4.06;100.00;101444.94;4872743;29;44790;-85
2021/12/11 08:12:26;;;;;;;;;9.67;5.33;;;;;4.05;100.00;101452.84;4868234;29;44926;-85
2021/12/11 08:14:52;;;;;;;;;7.67;7.67;;;;;4.13;100.00;101469.25;4865931;29;44811;-84
2021/12/11 08:17:19;;;;;;;;;7.67;7.67;;;;;4.15;100.00;101461.31;4867013;29;44905;-85
2021/12/11 08:19:45;;;;;;;;;9.33;7.33;;;;;4.15;100.00;101464.81;4868035;29;44909;-85
2021/12/11 08:22:11;;;;;;;;;8.67;8.00;;;;;4.16;100.00;101471.81;4868416;29;44788;-85
2021/12/11 08:24:39;;;;;;;;;18.33;10.00;;;;;4.18;100.00;101482.28;4868631;29;45471;-85
2021/12/11 08:27:13;;;;;;;;;11.67;8.67;;;;;4.09;100.00;101472.88;4870486;29;45244;-85
2021/12/11 08:29:45;;;;;;;;;10.00;8.33;;;;;4.23;100.00;101483.00;4867225;29;45324;-85
2021/12/11 08:32:13;;;;;;;;;8.00;6.00;;;;;4.23;100.00;101480.38;4867800;29;45239;-90
2021/12/11 08:34:41;;;;;;;;;9.25;9.25;;;;;4.32;100.00;101488.00;4852998;29;44925;-91
2021/12/11 08:37:12;;;;;;;;;12.00;5.00;;;;;4.31;100.00;101478.41;4866708;29;45676;-92
2021/12/11 08:39:41;;;;;;;;;10.00;8.00;;;;;4.46;100.00;101488.47;4881877;29;44806;-90
2021/12/11 08:42:20;;;;;;;;;9.75;6.50;;;;;4.50;100.00;101492.75;4880719;29;44899;-92
2021/12/11 08:45:06;;;;;;;;;11.50;10.00;;;;;4.68;100.00;101498.34;4867309;29;44856;-91
2021/12/11 08:47:41;;;;;;;;;14.25;9.00;;;;;4.68;100.00;101467.63;4884437;29;45287;-91
2021/12/11 08:50:58;;;;;;;;;6.50;6.50;;;;;4.83;100.00;101469.78;4851937;29;44770;-92
2021/12/11 08:56:00;;;;;;;;;8.25;7.25;;;;;5.19;100.00;101493.22;5058551;23;45821;-87
2021/12/11 08:58:28;;;;;;;;;9.25;7.50;;;;;5.34;100.00;101486.59;4887562;29;46916;-86
2021/12/11 09:00:56;;;;;;;;;8.00;8.00;;;;;5.51;100.00;101499.19;4907677;29;44825;-85
2021/12/11 09:03:36;;;;;;;;;9.25;8.25;;;;;5.66;100.00;101515.38;4908652;29;44788;-92
2021/12/11 09:06:17;;;;;;;;;11.25;8.00;;;;;5.80;100.00;101509.63;4920469;29;44874;-92
2021/12/11 09:08:57;;;;;;;;;9.75;8.25;;;;;5.92;100.00;101506.56;4924637;29;45165;-91
2021/12/11 09:11:30;;;;;;;;;10.75;8.25;;;;;6.11;100.00;101513.84;4918292;29;44603;-91
2021/12/11 09:14:12;;;;;;;;;11.25;8.50;;;;;6.28;100.00;101513.22;4896363;28;44776;-91
2021/12/11 09:17:00;;;;;;;;;10.50;8.75;;;;;6.31;100.00;101507.84;4887608;29;45023;-92
2021/12/11 09:19:47;;;;;;;;;12.00;9.00;;;;;6.29;100.00;101517.59;4900844;29;45157;-86
2021/12/11 09:22:17;;;;;;;;;9.00;5.50;;;;;6.39;100.00;101526.91;4883673;29;44745;-86
2021/12/11 09:24:56;;;;;;;;;11.00;7.50;;;;;6.34;100.00;101526.22;4882733;29;44774;-86
2021/12/11 09:27:22;;;;;;;;;11.50;9.00;;;;;6.38;100.00;101535.72;4883890;29;45171;-85
2021/12/11 09:30:00;;;;;;;;;7.00;7.00;;;;;6.51;100.00;101542.25;4885232;29;45549;-86
2021/12/11 09:32:30;;;;;;;;;12.00;9.00;;;;;6.56;100.00;101558.78;4885098;29;44967;-86
2021/12/11 09:35:07;;;;;;;;;10.25;8.75;;;;;6.52;100.00;101562.44;4871791;29;44826;-86
2021/12/11 09:37:35;;;;;;;;;12.50;9.25;;;;;6.49;100.00;101564.38;4887696;29;44925;-85
2021/12/11 09:40:09;;;;;;;;;9.50;9.50;;;;;6.32;100.00;101564.97;4885879;29;47048;-88
2021/12/11 09:42:37;;;;;;;;;11.75;8.75;;;;;6.27;100.00;101570.41;4897416;29;44619;-92
2021/12/11 09:45:29;;;;;;;;;7.75;6.00;;;;;6.24;100.00;101567.00;4901591;29;44664;-93
2021/12/11 09:48:00;;;;;;;;;13.00;11.50;;;;;6.35;100.00;101580.69;5353911;23;46140;-87
2021/12/11 09:50:42;;;;;;;;;10.25;10.00;;;;;6.40;100.00;101578.75;4891794;29;45473;-84
2021/12/11 09:53:07;;;;;;;;;14.00;12.50;;;;;6.56;100.00;101584.31;4909950;29;45173;-85
2021/12/11 09:55:37;;;;;;;;;13.25;10.50;;;;;6.62;100.00;101573.53;4911057;29;44776;-84
2021/12/11 09:58:07;;;;;;;;;13.75;12.25;;;;;6.70;100.00;101582.91;4891578;29;44868;-86
2021/12/11 10:00:39;;;;;;;;;12.00;11.75;;;;;6.74;100.00;101588.94;4904820;29;45447;-86
2021/12/11 10:03:08;;;;;;;;;16.25;14.00;;;;;6.84;100.00;101592.94;4885084;29;45479;-88
2021/12/11 10:05:43;;;;;;;;;11.00;10.00;;;;;6.90;100.00;101586.56;4866899;29;44636;-86
2021/12/11 10:08:30;;;;;;;;;14.00;10.75;;;;;6.93;100.00;101586.47;4881544;29;44957;-88
2021/12/11 10:11:17;;;;;;;;;14.50;12.00;;;;;7.04;100.00;101602.75;4882905;29;45284;-87
2021/12/11 10:13:42;;;;;;;;;8.00;8.00;;;;;7.10;100.00;101613.06;4883144;29;45435;-87
2021/12/11 10:16:09;;;;;;;;;12.75;9.25;;;;;7.07;100.00;101607.06;4884761;29;44766;-87
2021/12/11 10:18:35;;;;;;;;;12.75;12.75;;;;;7.13;100.00;101612.97;4883356;29;45431;-88
2021/12/11 10:21:16;;;;;;;;;8.75;8.75;;;;;7.21;100.00;101608.25;4884948;29;45051;-88
2021/12/11 10:23:46;;;;;;;;;7.50;6.25;;;;;7.34;100.00;101607.75;4884141;29;44701;-86
2021/12/11 10:26:13;;;;;;;;;13.25;11.25;;;;;7.38;100.00;101609.38;4866963;29;44734;-88
2021/12/11 10:28:42;;;;;;;;;11.50;8.00;;;;;7.45;100.00;101598.50;4882337;29;44790;-87
2021/12/11 10:31:25;;;;;;;;;12.75;7.50;;;;;7.55;100.00;101608.72;4882524;29;45409;-87
2021/12/11 10:34:08;;;;;;;;;13.50;10.25;;;;;7.63;100.00;101598.66;4882994;29;44832;-88
2021/12/11 10:36:38;;;;;;;;;19.25;18.00;;;;;7.63;100.00;101594.22;4885460;29;45209;-88
2021/12/11 10:39:07;;;;;;;;;9.25;8.00;;;;;7.67;100.00;101594.97;4885394;29;45530;-87
2021/12/11 10:41:33;;;;;;;;;13.50;8.50;;;;;7.64;100.00;101595.97;4884993;29;45240;-87
2021/12/11 10:44:06;;;;;;;;;10.50;8.75;;;;;7.69;100.00;101606.38;4867820;29;45329;-88
2021/12/11 10:46:39;;;;;;;;;13.50;11.25;;;;;7.72;100.00;101606.22;4885321;29;45371;-88
2021/12/11 10:49:09;;;;;;;;;9.25;9.25;;;;;7.71;100.00;101615.09;4868300;29;45659;-89
2021/12/11 10:51:41;;;;;;;;;11.75;9.25;;;;;7.63;100.00;101623.31;4885295;29;45372;-87
2021/12/11 10:54:08;;;;;;;;;13.00;11.00;;;;;7.51;100.00;101620.34;4869874;29;45271;-88
2021/12/11 10:56:34;;;;;;;;;16.00;13.00;;;;;7.47;100.00;101623.09;4887068;29;44815;-88
2021/12/11 10:59:17;;;;;;;;;18.00;12.25;;;;;7.51;100.00;101612.41;4888929;29;44850;-87
2021/12/11 11:02:02;;;;;;;;;12.00;11.50;;;;;7.47;100.00;101617.78;4901117;29;45268;-88
2021/12/11 11:04:35;;;;;;;;;16.25;11.75;;;;;7.49;100.00;101620.38;4902963;29;44649;-89
2021/12/11 11:07:01;;;;;;;;;8.50;8.25;;;;;7.57;100.00;101628.00;4898631;29;44725;-87
2021/12/11 11:09:28;;;;;;;;;10.25;8.00;;;;;7.61;100.00;101621.69;4874814;29;45237;-87
2021/12/11 11:11:58;;;;;;;;;12.00;11.00;;;;;7.64;100.00;101616.25;4868659;29;46692;-88
2021/12/11 11:14:25;;;;;;;;;14.50;12.25;;;;;7.68;100.00;101631.94;4871852;29;44797;-88
2021/12/11 11:16:54;;;;;;;;;7.75;7.75;;;;;7.79;100.00;101633.31;4890813;29;44762;-88
2021/12/11 11:19:26;;;;;;;;;11.75;11.75;;;;;7.91;100.00;101633.63;4889223;29;45493;-87
2021/12/11 11:21:57;;;;;;;;;14.50;11.00;;;;;7.94;100.00;101620.28;4890720;29;45251;-87
2021/12/11 11:24:30;;;;;;;;;11.40;11.40;;;;;8.05;100.00;101618.97;4889479;29;44698;-88
2021/12/11 11:26:58;;;;;;;;;18.75;10.25;;;;;8.19;100.00;101614.81;4891007;29;44710;-88
2021/12/11 11:29:27;;;;;;;;;8.00;7.00;;;;;8.33;100.00;101619.53;4900261;29;44900;-88
2021/12/11 11:31:59;;;;;;;;;13.75;7.00;;;;;8.43;100.00;101614.72;4902144;29;45373;-88
2021/12/11 11:34:31;;;;;;;;;7.60;7.60;;;;;8.52;100.00;101613.47;4899502;29;44816;-88
2021/12/11 11:37:02;;;;;;;;;9.50;6.75;;;;;8.55;100.00;101605.38;4901152;29;44754;-87
2021/12/11 11:39:29;;;;;;;;;12.25;8.25;;;;;8.60;100.00;101612.16;4901834;29;44769;-86
2021/12/11 11:42:10;;;;;;;;;12.00;10.75;;;;;8.60;100.00;101624.56;4878081;29;47146;-87
2021/12/11 11:44:55;;;;;;;;;7.50;7.25;;;;;8.52;100.00;101611.66;4883694;28;44698;-90
2021/12/11 11:47:48;;;;;;;;;10.25;7.75;;;;;8.47;100.00;101614.53;4893374;29;44796;-90
2021/12/11 11:55:57;;;;;;;;;11.00;7.50;;;;;8.32;100.00;101630.19;5038121;23;45937;-86
2021/12/11 11:58:24;;;;;;;;;8.60;7.00;;;;;8.29;100.00;101625.00;4885300;29;45278;-86
2021/12/11 12:00:54;;;;;;;;;10.50;6.50;;;;;8.29;100.00;101635.59;4882917;29;44909;-88
2021/12/11 12:03:22;;;;;;;;;7.75;6.25;;;;;8.29;100.00;101635.59;4867845;29;45343;-84
2021/12/11 12:05:54;;;;;;;;;7.80;6.00;;;;;8.21;100.00;101639.44;4867812;29;44853;-83
2021/12/11 12:08:19;;;;;;;;;8.75;8.75;;;;;8.21;100.00;101626.19;4885667;29;45378;-84
2021/12/11 12:10:47;;;;;;;;;9.00;9.00;;;;;8.24;100.00;101639.31;4885028;29;44844;-83